Time;durP1;ratioP1;P1;durP2;ratioP2;P2;SDS_P1;SDS_P2;PMS_P1;PMS_P2;Temp;Humidity;BMP_temperature;BMP_pressure;BME280_temperature;BME280_humidity;BME280_pressure;Samples;Min_cycle;Max_cycle;Signal;HPM_P1;HPM_P2
2022/12/08 00:00:49;;;;;;;;;43.75;41.25;;;;;7.23;68.98;100736.69;6149547;23;45562;-79
2022/12/08 00:03:14;;;;;;;;;42.00;34.25;;;;;7.23;68.79;100727.13;6149987;23;45787;-78
2022/12/08 00:11:17;;;;;;;;;45.75;39.25;;;;;7.25;68.81;100727.00;6149602;23;45588;-80
2022/12/08 00:13:42;;;;;;;;;47.75;39.50;;;;;7.25;68.86;100721.78;6150944;23;45491;-78
2022/12/08 00:16:08;;;;;;;;;54.50;41.00;;;;;7.25;69.03;100712.22;6150948;23;45860;-78
2022/12/08 00:18:34;;;;;;;;;51.00;41.25;;;;;7.20;68.87;100703.81;6150634;23;45404;-78
2022/12/08 00:20:59;;;;;;;;;50.75;42.25;;;;;7.23;69.02;100708.88;6149616;23;45644;-78
2022/12/08 00:23:25;;;;;;;;;40.50;36.75;;;;;7.26;68.92;100706.09;6149942;23;45641;-79
2022/12/08 00:29:13;;;;;;;;;46.00;38.25;;;;;7.25;68.98;100693.97;6149390;23;46102;-78
2022/12/08 00:31:38;;;;;;;;;44.00;35.25;;;;;7.27;68.81;100691.28;6149405;23;45648;-78
2022/12/08 00:34:04;;;;;;;;;43.50;33.50;;;;;7.06;68.84;100654.25;6149543;23;45438;-78
2022/12/08 00:36:29;;;;;;;;;35.75;31.75;;;;;7.29;69.04;100684.25;6149421;23;46117;-77
2022/12/08 00:38:56;;;;;;;;;34.00;29.75;;;;;7.31;68.86;100682.38;6149416;23;45629;-80
2022/12/08 00:44:09;;;;;;;;;39.00;36.75;;;;;7.30;68.69;100675.47;6149338;23;45491;-79
2022/12/08 00:46:35;;;;;;;;;41.50;36.25;;;;;7.36;68.68;100681.19;6149348;23;46571;-79
2022/12/08 00:49:01;;;;;;;;;42.75;36.75;;;;;7.03;68.65;100624.00;6149247;23;45705;-79
2022/12/08 00:51:26;;;;;;;;;41.75;36.25;;;;;7.23;68.66;100656.75;6148872;23;45666;-78
2022/12/08 00:53:52;;;;;;;;;46.75;38.25;;;;;7.33;68.68;100670.09;6149679;23;45734;-78
2022/12/08 00:59:39;;;;;;;;;47.75;41.75;;;;;7.33;68.74;100655.31;6148773;23;45716;-79
2022/12/08 01:02:04;;;;;;;;;48.00;39.50;;;;;7.39;68.73;100656.72;6149117;23;45608;-78
2022/12/08 01:04:30;;;;;;;;;40.50;36.00;;;;;7.48;68.66;100670.06;6149519;23;45548;-78
2022/12/08 01:06:55;;;;;;;;;40.75;36.75;;;;;7.41;68.75;100653.09;6149339;23;46206;-78
2022/12/08 01:09:20;;;;;;;;;40.00;35.00;;;;;7.50;68.78;100664.78;6148025;23;46446;-77
2022/12/08 01:11:46;;;;;;;;;37.25;33.50;;;;;7.49;68.56;100666.53;6149502;23;45821;-80
2022/12/08 01:14:12;;;;;;;;;40.00;34.00;;;;;7.47;68.56;100657.97;6149576;23;45535;-78
2022/12/08 01:16:40;;;;;;;;;42.00;37.50;;;;;7.32;68.47;100624.97;6149100;23;45385;-78
2022/12/08 01:19:05;;;;;;;;;44.00;40.00;;;;;7.53;68.68;100655.00;6149063;23;46238;-78
2022/12/08 01:21:31;;;;;;;;;46.25;39.50;;;;;7.39;68.48;100625.44;6148855;23;45432;-77
2022/12/08 01:23:59;;;;;;;;;54.25;41.25;;;;;7.46;68.47;100638.03;6148887;23;45488;-78
2022/12/08 01:29:46;;;;;;;;;39.50;37.50;;;;;7.54;68.46;100653.22;6148686;23;46030;-77
2022/12/08 01:32:12;;;;;;;;;45.00;38.25;;;;;7.51;68.47;100638.59;6149216;23;45483;-79
2022/12/08 01:34:37;;;;;;;;;46.50;42.00;;;;;7.43;68.33;100630.41;6149169;23;45613;-80
2022/12/08 01:37:03;;;;;;;;;45.00;39.75;;;;;7.50;68.41;100647.34;6148784;23;46343;-79
2022/12/08 01:39:29;;;;;;;;;46.50;40.50;;;;;7.46;68.29;100638.03;6149155;23;45586;-79
2022/12/08 01:45:27;;;;;;;;;49.50;42.75;;;;;7.44;68.20;100645.13;6149267;23;45490;-77
2022/12/08 01:48:01;;;;;;;;;45.25;38.75;;;;;7.38;68.41;100627.22;6149188;23;46379;-79
2022/12/08 01:50:28;;;;;;;;;41.50;39.25;;;;;7.35;68.37;100635.19;6148915;23;45985;-78
2022/12/08 01:53:01;;;;;;;;;43.75;38.75;;;;;7.32;68.54;100637.16;6149085;23;45773;-78
2022/12/08 01:55:37;;;;;;;;;2.00;1.25;;;;;7.38;68.40;100645.47;6149452;23;45473;-78
2022/12/08 01:58:19;;;;;;;;;50.00;42.00;;;;;7.36;68.28;100647.31;6148987;23;46561;-78
2022/12/08 02:00:45;;;;;;;;;50.00;41.75;;;;;7.16;68.44;100605.91;6148106;23;46133;-79
2022/12/08 02:03:17;;;;;;;;;53.25;42.00;;;;;7.38;68.16;100647.22;6148869;23;45712;-77
2022/12/08 02:05:43;;;;;;;;;37.00;32.50;;;;;7.35;68.37;100634.34;6149246;23;45595;-78
2022/12/08 02:08:11;;;;;;;;;46.25;38.25;;;;;7.29;68.34;100638.16;6148638;23;46241;-78
2022/12/08 02:10:39;;;;;;;;;50.50;41.50;;;;;7.22;68.49;100626.41;6121642;23;46181;-78
2022/12/08 02:13:08;;;;;;;;;45.25;36.75;;;;;7.10;68.38;100617.53;6149079;23;45699;-78
2022/12/08 02:15:52;;;;;;;;;47.50;41.50;;;;;7.13;68.55;100627.75;6148434;23;45408;-78
2022/12/08 02:18:23;;;;;;;;;48.75;39.75;;;;;7.11;68.71;100627.03;6148959;23;45490;-78
2022/12/08 02:21:10;;;;;;;;;41.25;35.00;;;;;7.09;68.68;100628.03;6148586;23;46362;-77
2022/12/08 02:23:51;;;;;;;;;47.50;39.25;;;;;7.05;68.64;100626.53;6150704;23;45611;-77
2022/12/08 02:26:56;;;;;;;;;55.00;41.00;;;;;7.03;68.50;100624.00;6150039;23;45474;-79
2022/12/08 02:29:25;;;;;;;;;47.00;36.75;;;;;6.99;68.44;100632.91;6148591;23;46378;-78
2022/12/08 02:32:28;;;;;;;;;53.00;42.00;;;;;6.93;68.55;100630.66;6148982;23;46264;-79
2022/12/08 02:35:13;;;;;;;;;47.50;39.00;;;;;6.88;68.92;100627.47;6148074;23;45783;-78
2022/12/08 02:37:47;;;;;;;;;48.75;38.00;;;;;6.81;68.91;100622.66;6148391;23;45617;-79
2022/12/08 02:43:08;;;;;;;;;50.00;38.25;;;;;6.68;69.00;100620.75;6148618;23;45628;-80
2022/12/08 02:45:50;;;;;;;;;45.25;41.00;;;;;6.63;69.21;100616.72;6148912;23;45744;-78
2022/12/08 02:48:16;;;;;;;;;53.75;37.25;;;;;6.56;69.24;100608.41;6149901;23;45493;-77
2022/12/08 02:50:41;;;;;;;;;48.25;36.50;;;;;6.51;69.00;100614.78;6150121;23;45466;-79
2022/12/08 02:53:07;;;;;;;;;43.25;35.50;;;;;6.46;69.09;100606.38;6151379;23;46545;-79
2022/12/08 02:59:22;;;;;;;;;34.00;28.25;;;;;6.38;69.44;100596.38;6153935;23;45656;-79
2022/12/08 03:02:05;;;;;;;;;56.00;41.00;;;;;6.32;69.69;100602.75;6153495;23;45659;-77
2022/12/08 03:04:53;;;;;;;;;45.00;40.75;;;;;6.24;69.84;100597.13;6154425;23;46186;-78
2022/12/08 03:07:30;;;;;;;;;37.25;29.50;;;;;6.22;69.68;100590.31;6153540;23;45379;-78
2022/12/08 03:10:14;;;;;;;;;41.25;30.00;;;;;6.14;69.58;100598.56;6150889;23;45372;-78
2022/12/08 03:16:06;;;;;;;;;40.25;37.50;;;;;5.95;69.79;100574.41;6150045;23;46105;-79
2022/12/08 03:18:36;;;;;;;;;45.00;40.00;;;;;6.03;70.14;100587.88;6150513;23;45754;-77
2022/12/08 03:21:06;;;;;;;;;38.25;36.00;;;;;5.98;70.19;100574.28;6150154;23;45527;-79
2022/12/08 03:23:35;;;;;;;;;38.75;33.75;;;;;6.03;70.28;100574.88;6150698;23;45506;-79
2022/12/08 03:26:10;;;;;;;;;21.75;14.25;;;;;6.00;70.19;100571.56;6152507;23;45844;-80
2022/12/08 03:28:36;;;;;;;;;44.25;36.75;;;;;5.84;70.03;100564.56;6152356;23;46292;-78
2022/12/08 03:31:06;;;;;;;;;46.75;39.25;;;;;5.77;70.32;100547.63;6152568;23;45426;-78
2022/12/08 03:33:35;;;;;;;;;43.50;36.50;;;;;5.80;70.25;100557.84;6154060;23;45664;-77
2022/12/08 03:36:04;;;;;;;;;42.00;33.50;;;;;5.74;70.38;100549.53;6126992;23;47074;-78
2022/12/08 03:38:38;;;;;;;;;36.00;32.50;;;;;5.66;70.49;100547.34;6153283;23;45801;-77
2022/12/08 03:41:19;;;;;;;;;35.75;29.00;;;;;5.65;70.58;100548.25;6150803;23;45727;-78
2022/12/08 03:43:52;;;;;;;;;36.50;27.00;;;;;5.60;70.27;100539.00;6151400;23;45652;-77
2022/12/08 03:46:20;;;;;;;;;42.00;30.50;;;;;5.33;70.75;100510.94;6124749;23;47444;-78
2022/12/08 03:48:45;;;;;;;;;42.75;36.50;;;;;5.52;70.82;100554.97;6150757;23;45527;-77
2022/12/08 03:51:11;;;;;;;;;37.50;32.25;;;;;5.44;70.66;100539.81;6150118;23;45523;-79
2022/12/08 03:53:37;;;;;;;;;50.50;34.75;;;;;5.23;71.19;100525.31;6122964;23;47939;-77
2022/12/08 03:56:18;;;;;;;;;41.50;34.75;;;;;5.28;71.48;100523.31;6149899;23;46121;-78
2022/12/08 03:58:44;;;;;;;;;45.50;40.50;;;;;5.34;71.51;100540.34;6150045;23;45493;-77
2022/12/08 04:01:10;;;;;;;;;20.50;10.50;;;;;5.25;71.26;100526.06;6149553;23;45631;-77
2022/12/08 04:03:35;;;;;;;;;53.50;38.75;;;;;5.30;71.53;100531.00;6149763;23;45701;-78
2022/12/08 04:06:01;;;;;;;;;42.00;31.75;;;;;5.27;71.85;100526.81;6149833;23;45795;-76
2022/12/08 04:08:26;;;;;;;;;47.50;39.25;;;;;5.21;71.91;100511.56;6149574;23;45617;-78
2022/12/08 04:10:51;;;;;;;;;40.25;34.50;;;;;5.38;71.68;100523.69;6149284;23;45605;-79
2022/12/08 04:16:39;;;;;;;;;37.25;33.25;;;;;5.44;71.58;100532.00;6149250;23;45553;-80
2022/12/08 04:19:04;;;;;;;;;38.75;32.50;;;;;5.38;71.51;100514.13;6149592;23;45585;-79
2022/12/08 04:21:30;;;;;;;;;40.50;34.25;;;;;5.26;71.81;100491.38;6149721;23;45695;-77
2022/12/08 04:23:55;;;;;;;;;42.00;36.50;;;;;5.33;71.69;100504.91;6149739;23;46228;-79
2022/12/08 04:26:20;;;;;;;;;40.75;33.75;;;;;5.42;71.94;100513.06;6149352;23;45850;-78
2022/12/08 04:32:07;;;;;;;;;47.25;33.25;;;;;5.43;71.75;100508.69;6149406;23;45596;-78
2022/12/08 04:34:33;;;;;;;;;37.25;33.50;;;;;5.37;71.89;100494.25;6148511;23;45676;-78
2022/12/08 04:36:58;;;;;;;;;41.00;35.75;;;;;5.48;71.57;100507.53;6149345;23;45631;-78
2022/12/08 04:39:24;;;;;;;;;40.25;35.75;;;;;5.39;71.53;100484.66;6149067;23;45504;-78
2022/12/08 04:41:49;;;;;;;;;46.00;36.00;;;;;5.52;71.88;100508.22;6149490;23;45680;-77
2022/12/08 04:44:14;;;;;;;;;38.00;34.75;;;;;5.43;71.34;100488.75;6149656;23;45616;-79
2022/12/08 04:46:40;;;;;;;;;43.50;34.75;;;;;5.57;71.41;100497.56;6149837;23;45683;-77
2022/12/08 04:49:05;;;;;;;;;41.00;35.25;;;;;5.47;71.64;100472.09;6148800;23;45467;-77
2022/12/08 04:51:30;;;;;;;;;33.00;29.75;;;;;5.61;71.69;100489.56;6122671;23;45748;-77
2022/12/08 04:53:56;;;;;;;;;37.25;34.25;;;;;5.60;71.56;100481.84;6149418;23;45581;-76
2022/12/08 04:56:21;;;;;;;;;44.75;37.25;;;;;5.66;71.21;100491.91;6149386;23;45664;-78
2022/12/08 05:02:08;;;;;;;;;36.00;31.25;;;;;5.68;71.23;100464.91;6149350;23;45654;-79
2022/12/08 05:04:33;;;;;;;;;39.25;35.50;;;;;5.79;71.11;100485.97;6149769;23;45657;-79
2022/12/08 05:06:59;;;;;;;;;42.50;29.50;;;;;5.81;71.28;100484.16;6149619;23;45955;-78
2022/12/08 05:09:24;;;;;;;;;32.00;29.00;;;;;5.86;70.78;100482.13;6148901;23;45558;-77
2022/12/08 05:11:50;;;;;;;;;37.75;32.00;;;;;5.82;71.10;100465.03;6147888;23;45756;-78
2022/12/08 05:17:37;;;;;;;;;34.25;28.25;;;;;5.69;70.90;100432.81;6148984;23;46040;-77
2022/12/08 05:20:02;;;;;;;;;36.50;32.25;;;;;5.88;70.65;100463.91;6149077;23;45665;-78
2022/12/08 05:22:28;;;;;;;;;34.75;28.75;;;;;5.92;70.42;100481.00;6149414;23;45582;-78
2022/12/08 05:24:53;;;;;;;;;37.75;29.00;;;;;5.89;70.56;100468.16;6149397;23;45679;-78
2022/12/08 05:27:18;;;;;;;;;41.00;32.25;;;;;5.84;70.33;100477.94;6149165;23;46447;-79
2022/12/08 05:29:44;;;;;;;;;39.50;28.00;;;;;5.70;70.60;100457.88;6148826;23;45607;-77
2022/12/08 05:32:09;;;;;;;;;36.00;32.50;;;;;5.83;70.38;100478.88;6149419;23;45720;-78
2022/12/08 05:34:34;;;;;;;;;46.25;33.50;;;;;5.75;70.92;100461.06;6148452;23;45779;-78
2022/12/08 05:37:00;;;;;;;;;30.75;25.75;;;;;5.84;70.72;100476.16;6121966;23;46208;-78
2022/12/08 05:39:25;;;;;;;;;37.50;33.25;;;;;5.77;70.94;100467.03;6149114;23;45533;-78
2022/12/08 05:41:50;;;;;;;;;32.50;25.25;;;;;5.83;70.64;100484.06;6149136;23;45458;-79
2022/12/08 05:47:37;;;;;;;;;39.75;31.00;;;;;5.89;70.34;100478.53;6148411;23;45738;-80
2022/12/08 05:50:04;;;;;;;;;32.00;26.00;;;;;5.83;70.69;100473.69;6148891;23;45727;-79
2022/12/08 05:52:31;;;;;;;;;33.25;30.50;;;;;5.84;70.68;100473.56;6148387;23;45590;-79
2022/12/08 05:54:56;;;;;;;;;39.50;34.75;;;;;5.82;70.60;100478.03;6148912;23;46579;-78
2022/12/08 05:57:21;;;;;;;;;34.00;27.25;;;;;5.61;70.74;100450.59;6148695;23;45750;-77
2022/12/08 06:03:11;;;;;;;;;33.00;29.00;;;;;5.64;70.69;100462.56;6148690;23;45622;-78
2022/12/08 06:05:41;;;;;;;;;45.25;31.25;;;;;5.57;70.85;100449.06;6148841;23;46617;-78
2022/12/08 06:08:09;;;;;;;;;29.00;23.75;;;;;5.59;70.54;100448.97;6148748;23;45605;-78
2022/12/08 06:10:37;;;;;;;;;37.25;25.50;;;;;5.52;70.61;100447.63;6147761;23;45727;-77
2022/12/08 06:13:02;;;;;;;;;33.50;29.00;;;;;5.59;70.88;100470.59;6148416;23;45835;-78
2022/12/08 06:15:28;;;;;;;;;35.75;29.00;;;;;5.52;70.88;100466.66;6148748;23;45568;-78
2022/12/08 06:17:53;;;;;;;;;26.25;19.75;;;;;5.37;70.83;100446.66;6148737;23;46589;-79
2022/12/08 06:20:19;;;;;;;;;21.00;19.50;;;;;5.23;70.91;100429.22;6148508;23;45514;-80
2022/12/08 06:22:44;;;;;;;;;26.50;20.00;;;;;5.46;71.20;100461.75;6149388;23;45414;-78
2022/12/08 06:25:09;;;;;;;;;29.25;24.75;;;;;5.40;71.19;100449.09;6149715;23;45691;-79
2022/12/08 06:27:35;;;;;;;;;29.25;26.75;;;;;5.39;71.04;100450.88;6150034;23;45569;-76
2022/12/08 06:33:23;;;;;;;;;38.00;31.25;;;;;5.19;71.56;100419.88;6149277;23;45570;-77
2022/12/08 06:35:48;;;;;;;;;32.75;28.00;;;;;5.40;71.52;100455.13;6149474;23;45686;-76
2022/12/08 06:38:13;;;;;;;;;30.50;22.75;;;;;5.37;71.60;100454.47;6150049;23;45481;-75
2022/12/08 06:40:39;;;;;;;;;37.50;27.25;;;;;5.39;71.36;100447.44;6148895;23;45488;-78
2022/12/08 06:43:05;;;;;;;;;33.50;25.75;;;;;5.41;71.62;100448.19;6149495;23;45457;-78
2022/12/08 06:45:32;;;;;;;;;29.00;25.00;;;;;5.42;71.24;100450.72;6148171;23;46846;-77
2022/12/08 06:47:57;;;;;;;;;33.75;28.25;;;;;5.43;71.23;100441.16;6122995;23;47611;-75
2022/12/08 06:50:23;;;;;;;;;34.75;22.00;;;;;5.43;71.22;100443.75;6149246;23;45507;-77
2022/12/08 06:52:48;;;;;;;;;37.00;28.00;;;;;5.46;71.47;100444.41;6150000;23;45592;-75
2022/12/08 06:55:14;;;;;;;;;34.75;26.50;;;;;5.52;71.11;100452.81;6149166;23;46418;-76
2022/12/08 06:57:39;;;;;;;;;25.75;19.75;;;;;5.53;71.35;100444.94;6148574;23;46419;-77
2022/12/08 07:03:26;;;;;;;;;29.75;25.50;;;;;5.53;70.76;100449.31;6149831;23;45551;-77
2022/12/08 07:05:55;;;;;;;;;27.25;25.00;;;;;5.51;70.70;100433.78;6148906;23;46148;-78
2022/12/08 07:08:21;;;;;;;;;28.75;25.50;;;;;5.58;70.97;100444.69;6148987;23;46318;-77
2022/12/08 07:10:46;;;;;;;;;15.75;11.00;;;;;5.59;70.79;100444.63;6148983;23;45555;-75
2022/12/08 07:13:11;;;;;;;;;14.50;11.50;;;;;5.60;70.46;100442.88;6150126;23;45491;-74
2022/12/08 07:18:59;;;;;;;;;22.50;19.75;;;;;5.61;70.29;100442.78;6149041;23;46092;-74
2022/12/08 07:21:24;;;;;;;;;22.00;20.25;;;;;5.65;70.17;100440.84;6149509;23;45539;-74
2022/12/08 07:23:50;;;;;;;;;30.50;24.75;;;;;5.67;70.06;100450.22;6149324;23;45653;-75
2022/12/08 07:26:15;;;;;;;;;25.75;22.50;;;;;5.66;70.00;100439.94;6149035;23;47197;-75
2022/12/08 07:35:07;;;;;;;;;29.50;19.00;;;;;5.59;70.28;100441.19;6146110;23;45843;-75
2022/12/08 07:37:33;;;;;;;;;21.75;19.25;;;;;5.59;69.76;100442.03;6149066;23;46247;-74
2022/12/08 07:39:59;;;;;;;;;28.50;22.00;;;;;5.54;70.26;100435.41;6148943;23;46462;-75
2022/12/08 07:42:24;;;;;;;;;30.50;22.00;;;;;5.62;70.26;100449.66;6149558;23;45557;-75
2022/12/08 07:44:49;;;;;;;;;28.50;22.75;;;;;5.63;70.20;100442.69;6149081;23;45801;-75
2022/12/08 07:47:15;;;;;;;;;20.25;19.25;;;;;5.63;69.94;100445.28;6122682;23;46377;-75
2022/12/08 07:49:40;;;;;;;;;21.75;18.25;;;;;5.63;69.97;100440.94;6148499;23;47251;-75
2022/12/08 07:52:05;;;;;;;;;28.75;22.75;;;;;5.62;70.01;100446.19;6148500;23;45502;-77
2022/12/08 07:54:31;;;;;;;;;25.75;21.50;;;;;5.63;69.84;100440.94;6149606;23;45547;-76
2022/12/08 07:56:57;;;;;;;;;18.75;17.00;;;;;5.60;69.81;100441.09;6122496;23;46332;-75
2022/12/08 07:59:22;;;;;;;;;24.75;19.00;;;;;5.63;69.56;100443.53;6148387;23;46908;-76
2022/12/08 08:01:49;;;;;;;;;22.50;19.25;;;;;5.66;69.52;100437.34;6149111;23;45601;-75
2022/12/08 08:04:16;;;;;;;;;24.25;22.00;;;;;5.67;69.65;100439.84;6149601;23;45725;-75
2022/12/08 08:06:41;;;;;;;;;29.00;25.00;;;;;5.53;68.96;100416.38;6149848;23;46704;-75
2022/12/08 08:09:10;;;;;;;;;18.50;17.75;;;;;5.63;69.13;100437.50;6148883;23;45710;-74
2022/12/08 08:11:36;;;;;;;;;20.75;16.25;;;;;5.52;69.56;100430.28;6150295;23;45716;-74
2022/12/08 08:14:02;;;;;;;;;23.00;14.25;;;;;5.49;69.63;100423.50;6149521;23;45877;-75
2022/12/08 08:19:49;;;;;;;;;24.75;19.25;;;;;5.45;69.84;100419.34;6148729;23;46129;-75
2022/12/08 08:22:18;;;;;;;;;24.75;21.25;;;;;5.49;69.71;100430.44;6148567;23;45657;-74
2022/12/08 08:24:46;;;;;;;;;28.75;23.75;;;;;5.51;69.58;100433.78;6149080;23;45489;-74
2022/12/08 08:27:15;;;;;;;;;15.25;14.25;;;;;5.54;69.76;100433.63;6123166;23;47491;-74
2022/12/08 08:29:40;;;;;;;;;28.00;24.75;;;;;5.50;69.39;100408.75;6098214;23;46605;-74
2022/12/08 08:32:06;;;;;;;;;26.75;20.00;;;;;5.59;69.29;100436.81;6149428;23;45519;-74
2022/12/08 08:34:31;;;;;;;;;21.00;18.50;;;;;5.61;69.12;100427.22;6148902;23;45518;-76
2022/12/08 08:36:57;;;;;;;;;30.25;21.00;;;;;5.60;69.79;100422.91;6149382;23;46177;-75
2022/12/08 08:39:22;;;;;;;;;18.00;15.50;;;;;5.62;68.96;100415.03;6148258;23;47147;-75
2022/12/08 08:41:48;;;;;;;;;32.00;22.50;;;;;5.65;68.89;100415.72;6148637;23;45641;-74
2022/12/08 08:44:14;;;;;;;;;20.75;19.00;;;;;5.62;69.18;100408.06;6149807;23;45490;-76
2022/12/08 08:50:01;;;;;;;;;31.00;23.50;;;;;5.66;68.88;100401.81;6148057;23;46206;-74
2022/12/08 08:52:27;;;;;;;;;26.50;21.50;;;;;5.71;69.21;100407.59;6148675;23;45547;-75
2022/12/08 08:54:52;;;;;;;;;25.25;22.00;;;;;5.64;68.87;100388.03;6149936;23;45585;-75
2022/12/08 08:57:18;;;;;;;;;26.00;18.00;;;;;5.64;68.82;100385.44;6121761;23;46862;-74
2022/12/08 08:59:43;;;;;;;;;23.50;16.00;;;;;5.79;69.07;100407.16;6148748;23;45602;-74
2022/12/08 09:02:17;;;;;;;;;23.50;20.75;;;;;5.77;68.87;100404.66;6145038;23;45600;-75
2022/12/08 09:04:43;;;;;;;;;23.75;19.25;;;;;5.79;68.45;100407.16;6149471;23;45700;-74
2022/12/08 09:07:08;;;;;;;;;25.75;22.00;;;;;5.71;68.27;100401.56;6149100;23;46349;-75
2022/12/08 09:09:33;;;;;;;;;24.50;22.50;;;;;5.70;68.33;100394.66;6148021;23;47132;-74
2022/12/08 09:11:59;;;;;;;;;20.50;19.75;;;;;5.64;68.60;100389.81;6148718;23;45535;-75
2022/12/08 09:14:24;;;;;;;;;25.00;20.25;;;;;5.69;68.72;100396.44;6148770;23;45899;-74
2022/12/08 09:20:11;;;;;;;;;29.25;26.50;;;;;5.78;68.45;100408.91;6148405;23;46200;-76
2022/12/08 09:22:37;;;;;;;;;20.50;18.25;;;;;5.83;68.31;100401.69;6149233;23;45595;-73
2022/12/08 09:25:02;;;;;;;;;22.75;20.50;;;;;5.86;68.67;100406.75;6148922;23;45479;-74
2022/12/08 09:27:28;;;;;;;;;22.75;22.00;;;;;5.92;68.64;100407.38;6148218;23;46009;-75
2022/12/08 09:29:53;;;;;;;;;25.00;21.25;;;;;5.93;68.01;100407.28;6147453;23;45458;-75
2022/12/08 09:35:40;;;;;;;;;26.00;20.25;;;;;5.99;68.20;100395.72;6141842;23;45872;-74
2022/12/08 09:38:05;;;;;;;;;19.75;17.25;;;;;6.05;67.96;100403.16;6147366;23;47380;-76
2022/12/08 09:40:39;;;;;;;;;28.75;24.50;;;;;6.05;68.04;100404.00;6147872;23;45630;-76
2022/12/08 09:43:24;;;;;;;;;25.25;21.50;;;;;6.02;67.90;100383.38;6148856;23;45817;-75
2022/12/08 09:45:50;;;;;;;;;29.00;22.75;;;;;6.13;68.09;100396.59;6148445;23;45521;-75
2022/12/08 09:48:24;;;;;;;;;24.50;20.75;;;;;6.15;67.91;100396.53;6149064;23;45608;-74
2022/12/08 09:50:54;;;;;;;;;24.50;22.50;;;;;6.14;67.40;100392.25;6148754;23;46072;-73
2022/12/08 09:53:25;;;;;;;;;20.00;19.00;;;;;6.16;66.99;100385.19;6148435;23;45578;-75
2022/12/08 09:55:55;;;;;;;;;21.00;20.00;;;;;6.12;67.17;100387.13;6148800;23;45814;-75
2022/12/08 09:58:59;;;;;;;;;22.25;21.00;;;;;6.10;67.00;100381.16;6149103;23;48436;-74
2022/12/08 10:01:30;;;;;;;;;26.25;19.00;;;;;6.03;67.20;100364.25;6000496;23;46029;-74
2022/12/08 10:03:55;;;;;;;;;25.50;22.00;;;;;6.06;67.15;100381.44;5977769;23;45672;-75
2022/12/08 10:06:38;;;;;;;;;19.25;19.00;;;;;6.05;67.17;100367.59;6001629;23;45514;-75
2022/12/08 10:09:31;;;;;;;;;25.00;20.00;;;;;6.12;67.41;100376.72;6001633;23;45725;-73
2022/12/08 10:12:07;;;;;;;;;19.00;17.50;;;;;6.17;67.42;100366.06;6001077;23;47144;-75
2022/12/08 10:14:44;;;;;;;;;22.00;17.75;;;;;6.21;67.23;100368.38;6002451;23;45536;-75
2022/12/08 10:17:23;;;;;;;;;23.75;22.50;;;;;6.22;67.40;100357.06;6002570;23;45648;-74
2022/12/08 10:19:57;;;;;;;;;23.00;21.75;;;;;6.26;67.12;100365.56;6001980;23;46381;-75
2022/12/08 10:22:30;;;;;;;;;19.00;15.75;;;;;6.32;66.88;100366.00;6002176;23;46212;-75
2022/12/08 10:25:10;;;;;;;;;20.50;19.50;;;;;6.26;66.52;100347.34;6001955;23;45813;-75
2022/12/08 10:27:36;;;;;;;;;21.00;20.50;;;;;6.33;67.02;100348.66;6002773;23;45495;-75
2022/12/08 10:30:13;;;;;;;;;20.25;17.00;;;;;6.42;66.50;100352.50;6001193;23;47125;-75
2022/12/08 10:32:44;;;;;;;;;24.75;21.25;;;;;6.42;65.96;100348.13;6001264;23;47635;-76
2022/12/08 10:35:13;;;;;;;;;23.75;20.25;;;;;6.44;66.38;100345.41;6001118;23;45635;-76
2022/12/08 10:37:39;;;;;;;;;25.75;23.00;;;;;6.40;66.63;100328.31;6040442;23;45869;-74
2022/12/08 10:40:12;;;;;;;;;22.25;20.50;;;;;6.44;66.35;100333.25;6148791;23;46339;-75
2022/12/08 10:42:46;;;;;;;;;20.50;18.25;;;;;6.45;66.43;100327.13;6149290;23;47158;-76
2022/12/08 10:45:40;;;;;;;;;24.75;19.00;;;;;6.48;66.77;100324.34;6149230;23;45655;-76
2022/12/08 10:48:13;;;;;;;;;23.00;19.00;;;;;6.52;66.24;100322.41;6120301;23;45511;-76
2022/12/08 10:50:44;;;;;;;;;20.00;18.00;;;;;6.56;66.45;100322.13;6148896;23;46880;-75
2022/12/08 10:53:11;;;;;;;;;25.75;22.50;;;;;6.59;66.33;100319.34;6150013;23;45776;-75
2022/12/08 10:55:42;;;;;;;;;23.50;21.50;;;;;6.62;66.23;100320.94;6122970;23;45721;-74
2022/12/08 10:58:34;;;;;;;;;20.25;19.00;;;;;6.64;65.97;100319.09;6149847;23;45902;-75
2022/12/08 11:04:43;;;;;;;;;29.00;24.50;;;;;6.66;66.17;100307.63;6149369;23;46194;-76
2022/12/08 11:07:10;;;;;;;;;28.50;26.00;;;;;6.69;66.08;100317.03;6148355;23;45406;-74
2022/12/08 11:09:47;;;;;;;;;28.25;24.00;;;;;6.71;65.83;100303.00;6122428;23;45454;-76
2022/12/08 11:12:20;;;;;;;;;31.25;26.75;;;;;6.67;65.40;100295.47;6148855;23;47305;-76
2022/12/08 11:15:01;;;;;;;;;29.00;23.50;;;;;6.64;65.54;100293.88;6149089;23;46082;-75
2022/12/08 11:21:05;;;;;;;;;24.75;20.75;;;;;6.60;65.80;100287.19;6149765;23;45618;-75
2022/12/08 11:23:34;;;;;;;;;23.25;20.25;;;;;6.63;65.94;100287.00;6149771;23;46741;-76
2022/12/08 11:26:08;;;;;;;;;26.25;21.00;;;;;6.63;65.81;100279.22;6122601;23;48088;-74
2022/12/08 11:28:35;;;;;;;;;29.00;26.00;;;;;6.64;65.58;100280.84;6148746;23;45685;-75
2022/12/08 11:37:28;;;;;;;;;24.50;22.75;;;;;6.76;65.67;100281.88;6146148;23;46126;-74
2022/12/08 11:39:58;;;;;;;;;37.00;28.00;;;;;6.72;65.39;100278.66;6149375;23;45569;-75
2022/12/08 11:42:33;;;;;;;;;27.75;24.00;;;;;6.73;65.71;100267.31;6149195;23;45874;-75
2022/12/08 11:45:06;;;;;;;;;28.50;25.75;;;;;6.80;65.54;100262.56;6149742;23;45458;-75
2022/12/08 11:47:44;;;;;;;;;27.50;23.00;;;;;6.83;65.20;100259.75;6149647;23;45971;-74
2022/12/08 11:50:41;;;;;;;;;27.25;25.00;;;;;6.82;65.24;100255.47;6123195;23;45785;-75
2022/12/08 11:53:17;;;;;;;;;28.00;25.25;;;;;6.86;64.92;100263.94;6122918;23;45953;-75
2022/12/08 11:55:49;;;;;;;;;31.00;26.75;;;;;6.81;64.65;100261.63;6149861;23;45424;-77
2022/12/08 11:58:25;;;;;;;;;23.75;19.25;;;;;6.83;64.83;100264.13;6149052;23;46273;-76
2022/12/08 12:00:51;;;;;;;;;25.25;21.25;;;;;6.74;64.87;100250.75;6149999;23;45578;-74
2022/12/08 12:03:28;;;;;;;;;32.75;24.25;;;;;6.82;65.06;100262.44;6123335;23;45675;-76
2022/12/08 12:06:04;;;;;;;;;32.75;27.25;;;;;6.84;65.15;100255.41;6149041;23;47707;-75
2022/12/08 12:08:55;;;;;;;;;25.00;20.75;;;;;6.83;64.82;100256.31;6122980;23;48029;-76
2022/12/08 12:15:03;;;;;;;;;24.75;20.75;;;;;6.79;64.81;100247.03;6149827;23;45785;-75
2022/12/08 12:20:56;;;;;;;;;20.00;16.00;;;;;6.76;64.73;100229.81;6000781;23;46044;-76
2022/12/08 12:23:28;;;;;;;;;30.50;24.75;;;;;6.83;64.71;100238.09;6001199;23;45637;-75
2022/12/08 12:26:02;;;;;;;;;25.25;20.75;;;;;6.85;64.65;100231.03;6001367;23;45804;-75
2022/12/08 12:28:38;;;;;;;;;28.75;22.50;;;;;6.88;64.83;100228.22;5977234;23;48371;-74
2022/12/08 12:31:08;;;;;;;;;24.00;20.50;;;;;6.91;64.77;100228.88;6000886;23;47186;-75
2022/12/08 12:37:06;;;;;;;;;28.25;22.25;;;;;7.00;64.49;100225.72;6001290;23;45602;-75
2022/12/08 12:40:05;;;;;;;;;27.50;24.75;;;;;7.00;64.37;100215.28;6001013;23;47174;-75
2022/12/08 12:42:44;;;;;;;;;29.50;25.25;;;;;7.04;64.32;100235.00;6001296;23;47109;-75
2022/12/08 12:45:42;;;;;;;;;26.25;23.50;;;;;7.05;64.36;100230.63;6000562;23;45691;-74
2022/12/08 12:51:37;;;;;;;;;27.25;24.75;;;;;7.10;64.50;100225.97;5944865;23;46009;-75
2022/12/08 12:54:24;;;;;;;;;28.00;22.00;;;;;7.11;64.32;100214.63;5988855;23;46491;-74
2022/12/08 12:57:13;;;;;;;;;29.75;26.50;;;;;7.11;64.13;100210.25;6059934;23;45525;-75
2022/12/08 12:59:51;;;;;;;;;33.25;25.00;;;;;7.08;64.05;100215.63;6062024;23;45662;-75
2022/12/08 13:02:28;;;;;;;;;27.00;24.50;;;;;7.01;64.03;100206.56;6062273;23;46437;-75
2022/12/08 13:05:08;;;;;;;;;30.25;27.00;;;;;7.01;64.30;100216.13;6058595;23;46199;-74
2022/12/08 13:07:42;;;;;;;;;32.75;26.00;;;;;7.01;64.24;100216.97;6034445;23;45653;-75
2022/12/08 13:10:21;;;;;;;;;31.00;26.00;;;;;7.02;64.29;100209.97;6060097;23;45413;-74
2022/12/08 13:13:00;;;;;;;;;33.75;28.75;;;;;6.97;64.22;100201.63;6035833;23;47486;-76
2022/12/08 13:15:37;;;;;;;;;29.25;25.25;;;;;7.04;64.08;100208.13;6060335;23;46480;-74
2022/12/08 13:18:03;;;;;;;;;31.00;27.25;;;;;7.05;64.16;100199.38;6060356;23;45611;-75